createdAt,value
2022-12-13T00:02:42.264Z,63.70
2022-12-13T00:07:42.154Z,67.80
2022-12-13T00:12:42.091Z,63.70
2022-12-13T00:17:42.006Z,63.30
2022-12-13T00:22:41.988Z,69.10
2022-12-13T00:27:41.946Z,69.40
2022-12-13T00:32:41.898Z,71.70
2022-12-13T00:37:41.830Z,62.60
2022-12-13T00:42:41.757Z,66.10
2022-12-13T00:47:41.695Z,69.50
2022-12-13T00:52:41.695Z,75.80
2022-12-13T00:57:41.690Z,69.10
2022-12-13T01:02:41.559Z,69.70
2022-12-13T01:07:41.515Z,71.60
2022-12-13T01:12:41.438Z,63.60
2022-12-13T01:17:41.396Z,66.40
2022-12-13T01:22:41.355Z,59.20
2022-12-13T01:27:41.298Z,63.00
2022-12-13T01:32:41.229Z,63.40
2022-12-13T01:37:41.213Z,57.80
2022-12-13T01:42:41.136Z,66.90
2022-12-13T01:47:41.115Z,62.00
2022-12-13T01:52:41.019Z,57.70
2022-12-13T01:57:45.415Z,60.40
2022-12-13T02:02:41.963Z,56.80
2022-12-13T02:07:40.982Z,54.10
2022-12-13T02:12:40.881Z,60.20
2022-12-13T02:17:44.785Z,58.10
2022-12-13T02:22:40.879Z,54.50
2022-12-13T02:27:42.998Z,60.40
2022-12-13T02:32:40.641Z,57.50
2022-12-13T03:01:28.766Z,55.00
2022-12-13T03:22:06.226Z,52.50
2022-12-13T03:29:39.429Z,60.40
2022-12-13T03:41:39.796Z,52.10
2022-12-13T03:46:39.668Z,53.80
2022-12-13T03:51:41.682Z,55.10
2022-12-13T03:56:39.579Z,55.20
2022-12-13T04:01:40.690Z,52.30
2022-12-13T04:06:41.450Z,50.60
2022-12-13T04:11:43.422Z,50.90
2022-12-13T04:16:41.311Z,51.20
2022-12-13T04:21:39.070Z,49.20
2022-12-13T04:26:39.037Z,56.60
2022-12-13T04:31:38.991Z,53.80
2022-12-13T04:36:38.916Z,51.90
2022-12-13T04:41:38.871Z,50.90
2022-12-13T04:46:38.905Z,48.00
2022-12-13T04:51:38.736Z,52.80
2022-12-13T04:56:38.678Z,58.10
2022-12-13T05:01:38.613Z,57.50
2022-12-13T05:06:38.531Z,50.40
2022-12-13T05:11:38.541Z,53.60
2022-12-13T05:16:39.692Z,49.90
2022-12-13T05:21:38.432Z,50.20
2022-12-13T05:26:38.506Z,50.40
2022-12-13T05:31:38.581Z,53.40
2022-12-13T05:36:38.273Z,50.10
2022-12-13T05:41:38.301Z,56.70
2022-12-13T05:46:41.488Z,47.90
2022-12-13T05:51:38.150Z,52.70
2022-12-13T05:56:38.095Z,52.40
2022-12-13T06:01:38.092Z,48.90
2022-12-13T06:06:39.058Z,47.80
2022-12-13T06:11:43.485Z,50.00
2022-12-13T06:16:38.927Z,51.60
2022-12-13T06:21:41.199Z,55.30
2022-12-13T06:26:38.945Z,54.00
2022-12-13T06:31:37.787Z,58.70
2022-12-13T06:36:38.733Z,49.30
2022-12-13T06:41:37.648Z,60.10
2022-12-13T06:46:40.984Z,66.00
2022-12-13T06:51:39.636Z,59.00
2022-12-13T06:56:38.591Z,57.00
2022-12-13T07:01:38.034Z,50.00
2022-12-13T07:06:37.392Z,59.40
2022-12-13T07:11:37.288Z,54.70
2022-12-13T07:16:37.234Z,56.90
2022-12-13T07:21:37.130Z,50.70
2022-12-13T07:26:37.124Z,55.10
2022-12-13T07:31:37.061Z,61.90
2022-12-13T07:36:37.114Z,52.90
2022-12-13T07:41:37.005Z,52.20
2022-12-13T07:46:37.009Z,45.20
2022-12-13T07:51:37.043Z,51.60
2022-12-13T07:56:37.841Z,53.40
2022-12-13T08:01:36.862Z,52.00
2022-12-13T08:06:36.723Z,46.30
2022-12-13T08:11:36.662Z,52.20
2022-12-13T08:16:36.628Z,54.80
2022-12-13T08:26:37.546Z,52.70
2022-12-13T08:31:36.550Z,52.10
2022-12-13T08:38:57.224Z,57.90
2022-12-13T08:43:57.227Z,53.80
2022-12-13T08:48:57.171Z,48.40
2022-12-13T08:54:10.934Z,55.40
2022-12-13T08:58:58.252Z,49.50
2022-12-13T09:03:58.154Z,53.00
2022-12-13T09:08:57.098Z,50.40
2022-12-13T09:14:01.487Z,49.80
2022-12-13T09:18:56.870Z,53.80
2022-12-13T09:23:56.776Z,43.50
2022-12-13T09:29:11.485Z,48.20
2022-12-13T09:39:32.493Z,57.50
2022-12-13T09:44:43.599Z,58.10
2022-12-13T09:49:34.889Z,60.00
2022-12-13T09:54:32.470Z,54.40
2022-12-13T09:59:32.300Z,39.20
2022-12-13T10:04:32.229Z,43.00
2022-12-13T10:09:32.225Z,61.50
2022-12-13T10:14:32.153Z,60.40
2022-12-13T10:19:32.084Z,45.20
2022-12-13T10:24:36.868Z,38.30
2022-12-13T10:29:33.086Z,30.10
2022-12-13T10:34:31.972Z,33.50
2022-12-13T10:39:31.879Z,27.60
2022-12-13T10:44:31.825Z,30.70
2022-12-13T10:49:31.761Z,27.80
2022-12-13T10:54:38.509Z,26.90
2022-12-13T10:59:32.670Z,24.20
2022-12-13T11:04:31.619Z,26.70
2022-12-13T11:09:38.435Z,25.90
2022-12-13T11:14:32.723Z,19.90
2022-12-13T11:19:31.493Z,27.40
2022-12-13T11:24:31.390Z,22.40
2022-12-13T11:29:31.316Z,23.40
2022-12-13T11:34:31.369Z,26.20
2022-12-13T11:39:31.242Z,24.90
2022-12-13T11:44:31.359Z,23.80
2022-12-13T11:49:31.308Z,23.30
2022-12-13T11:54:32.227Z,34.00
2022-12-13T11:59:31.367Z,24.40
2022-12-13T12:04:31.979Z,136.20
2022-12-13T12:09:30.880Z,50.60
2022-12-13T12:14:30.975Z,28.40
2022-12-13T12:19:30.926Z,23.60
2022-12-13T12:24:30.741Z,28.90
2022-12-13T12:29:30.774Z,73.60
2022-12-13T12:34:30.624Z,48.40
2022-12-13T12:39:30.600Z,23.20
2022-12-13T12:44:31.240Z,134.00
2022-12-13T12:49:30.554Z,135.20
2022-12-13T12:54:32.713Z,92.60
2022-12-13T12:59:30.573Z,43.60
2022-12-13T13:04:30.310Z,26.20
2022-12-13T13:09:30.227Z,21.70
2022-12-13T13:14:30.189Z,29.90
2022-12-13T13:19:31.287Z,17.20
2022-12-13T13:24:30.105Z,94.10
2022-12-13T13:29:30.088Z,20.00
2022-12-13T13:34:29.984Z,16.10
2022-12-13T13:39:29.946Z,26.90
2022-12-13T13:44:30.032Z,21.10
2022-12-13T13:49:31.561Z,21.00
2022-12-13T13:54:29.867Z,16.90
2022-12-13T13:59:29.740Z,15.60
2022-12-13T14:04:29.854Z,18.70
2022-12-13T14:09:29.785Z,16.50
2022-12-13T14:14:29.744Z,15.50
2022-12-13T14:19:29.689Z,18.90
2022-12-13T14:24:29.477Z,27.40
2022-12-13T14:29:29.402Z,30.70
2022-12-13T14:34:29.352Z,28.10
2022-12-13T14:49:16.794Z,35.80
2022-12-13T15:05:05.185Z,38.30
2022-12-13T15:10:11.517Z,38.00
2022-12-13T15:15:05.231Z,62.70
2022-12-13T15:20:05.585Z,35.60
2022-12-13T15:25:35.637Z,37.00
2022-12-13T15:30:05.261Z,32.90
2022-12-13T15:35:06.403Z,36.70
2022-12-13T15:40:04.848Z,39.70
2022-12-13T15:45:04.887Z,41.40
2022-12-13T15:50:06.974Z,39.20
2022-12-13T15:55:09.779Z,33.60
2022-12-13T16:00:34.339Z,37.60
2022-12-13T18:11:34.686Z,36.40
2022-12-13T18:16:19.131Z,38.70
2022-12-13T18:21:18.006Z,39.10
2022-12-13T18:26:17.987Z,44.10
2022-12-13T18:31:17.927Z,45.70
2022-12-13T18:36:17.846Z,38.70
2022-12-13T18:41:17.847Z,40.30
2022-12-13T18:46:17.873Z,55.20
2022-12-13T18:51:17.667Z,47.70
2022-12-13T18:56:19.190Z,55.00
2022-12-13T19:01:17.689Z,52.50
2022-12-13T19:06:17.717Z,40.40
2022-12-13T19:11:17.472Z,38.00
2022-12-13T19:16:17.469Z,64.30
2022-12-13T19:21:17.411Z,95.70
2022-12-13T19:26:17.325Z,61.90
2022-12-13T19:31:17.293Z,75.20
2022-12-13T19:36:17.289Z,87.50
2022-12-13T19:41:17.175Z,66.00
2022-12-13T19:46:17.150Z,48.50
2022-12-13T19:51:17.068Z,51.40
2022-12-13T19:56:17.064Z,41.10
2022-12-13T20:01:16.992Z,42.10
2022-12-13T20:06:17.033Z,51.50
2022-12-13T20:11:16.839Z,43.70
2022-12-13T20:16:16.945Z,44.10
2022-12-13T20:21:16.840Z,46.80
2022-12-13T20:26:16.702Z,41.50
2022-12-13T20:31:16.791Z,39.60
2022-12-13T20:36:25.469Z,41.80
2022-12-13T20:42:27.866Z,42.10
2022-12-13T20:47:27.809Z,39.90
2022-12-13T20:52:27.758Z,38.20
2022-12-13T20:57:27.732Z,36.20
2022-12-13T21:02:27.744Z,49.40
2022-12-13T21:07:27.614Z,40.30
2022-12-13T21:12:27.676Z,40.80
2022-12-13T21:17:27.512Z,39.60
2022-12-13T21:22:40.345Z,39.00
2022-12-13T21:27:27.469Z,48.60
2022-12-13T21:32:27.371Z,39.80
2022-12-13T21:37:27.290Z,42.10
2022-12-13T21:42:27.231Z,42.80
2022-12-13T21:47:27.207Z,46.10
2022-12-13T21:52:27.164Z,37.30
2022-12-13T21:57:28.160Z,37.00
2022-12-13T22:02:27.064Z,30.10
2022-12-13T22:07:26.980Z,27.10
2022-12-13T22:12:26.945Z,31.50
2022-12-13T22:17:33.066Z,46.10
2022-12-13T22:22:27.814Z,35.70
2022-12-13T22:27:26.801Z,33.80
2022-12-13T22:32:26.712Z,36.50
2022-12-13T22:37:26.655Z,30.90
2022-12-13T22:42:27.691Z,28.20
2022-12-13T22:47:26.537Z,27.60
2022-12-13T22:52:30.462Z,29.50
2022-12-13T22:57:27.463Z,36.70
2022-12-13T23:02:26.592Z,31.10
2022-12-13T23:07:26.350Z,28.60
2022-12-13T23:12:26.379Z,33.40
2022-12-13T23:17:26.277Z,32.60
2022-12-13T23:22:26.299Z,31.30
2022-12-13T23:27:26.358Z,34.20
2022-12-13T23:32:26.091Z,35.20
2022-12-13T23:37:26.058Z,28.70
2022-12-13T23:42:26.130Z,31.90
2022-12-13T23:47:26.084Z,24.10
2022-12-13T23:52:25.983Z,21.60
2022-12-13T23:57:25.820Z,16.00
